»·PEaware :: C-GTGM KSBA-KSBA

C-GTGM :: KSBA-KSBA

FLIGHT INFORMATION

Flight Status: Arrived
Operator: Privately registered:
Canada
More flights under this callsign
Pilot: Thomas N. (7419)
Aircraft: Unknown
(B58)
More flights by this aircraft type
Origin: KSBA Santa Barbara Mun
United States
Destination: KSBA Santa Barbara Mun
United States
More flights between these airports :: More routes between these airports
Route: +
File this flight plan on PilotEdge
Remarks:
Altitude:
(Current/Filed)
0ft
Speed:
(Current/Filed)
0kts
Departed: 12-Feb-16 08:51 PM
Arrived: 12-Feb-16 09:54 PM
Distance/Time
Traveled:
0nm/1:03
Distance/Time
To Go:
Arrived

Flight Plot

Page will automatically refresh every two minutes.


Map Options




Map Legend


Flown Route
Filed Route
Departure Airport
Arrival Airport
Navaid (VOR, NDB)
Fix

Horizontal Profiles

Position Reports

Time Latitude Longitude Heading Altitude Ground
Speed
12-Feb-16 20:44 34.431601 -119.840703 166 44ft 93kts
12-Feb-16 20:45 34.405656 -119.833637 167 919ft 101kts
12-Feb-16 20:46 34.411503 -119.819199 1 1108ft 103kts
12-Feb-16 20:47 34.439161 -119.817699 355 908ft 116kts
12-Feb-16 20:48 34.452909 -119.836796 256 627ft 101kts
12-Feb-16 20:49 34.427560 -119.839494 165 18ft 82kts
12-Feb-16 20:50 34.406617 -119.828810 100 985ft 105kts
12-Feb-16 20:51 34.430277 -119.819018 357 946ft 102kts
12-Feb-16 20:52 34.450569 -119.832421 266 747ft 94kts
12-Feb-16 20:53 34.430886 -119.840493 167 44ft 89kts
12-Feb-16 20:54 34.409469 -119.827100 98 1050ft 116kts
12-Feb-16 20:55 34.434701 -119.817774 2 1172ft 104kts
12-Feb-16 20:56 34.447862 -119.839784 246 691ft 99kts
12-Feb-16 20:57 34.423392 -119.838239 167 86ft 102kts
12-Feb-16 20:58 34.416131 -119.820409 20 1179ft 88kts
12-Feb-16 20:59 34.442996 -119.818433 8 1312ft 114kts
12-Feb-16 21:00 34.460657 -119.837282 266 1068ft 106kts
12-Feb-16 21:01 34.434037 -119.841526 167 125ft 93kts
12-Feb-16 21:02 34.414502 -119.826245 95 1286ft 104kts
12-Feb-16 21:03 34.411273 -119.786608 92 1862ft 99kts
12-Feb-16 21:04 34.406478 -119.758773 106 3041ft 103kts
12-Feb-16 21:05 34.400543 -119.720992 90 4310ft 87kts
12-Feb-16 21:06 34.399171 -119.686886 98 4905ft 124kts
12-Feb-16 21:07 34.396335 -119.640640 90 5325ft 152kts
12-Feb-16 21:08 34.398878 -119.592680 86 5551ft 166kts
12-Feb-16 21:09 34.395217 -119.534422 106 5543ft 167kts
12-Feb-16 21:10 34.372809 -119.486585 120 5534ft 171kts
12-Feb-16 21:11 34.347753 -119.441806 128 5906ft 151kts
12-Feb-16 21:12 34.321171 -119.395742 122 5575ft 171kts
12-Feb-16 21:13 34.298864 -119.356643 127 5040ft 169kts
12-Feb-16 21:14 34.270105 -119.315428 133 3384ft 152kts
12-Feb-16 21:15 34.244836 -119.280892 133 1821ft 143kts
12-Feb-16 21:16 34.221147 -119.246394 124 1258ft 135kts
12-Feb-16 21:17 34.212592 -119.207381 91 908ft 130kts
12-Feb-16 21:18 34.203802 -119.179228 228 619ft 119kts
12-Feb-16 21:19 34.200952 -119.215361 271 255ft 105kts
12-Feb-16 21:20 34.209829 -119.232957 81 1105ft 110kts
12-Feb-16 21:21 34.213709 -119.190544 88 973ft 125kts
12-Feb-16 21:22 34.200760 -119.199444 270 65ft 98kts
12-Feb-16 21:23 34.202659 -119.235768 306 1095ft 130kts
12-Feb-16 21:24 34.214009 -119.206539 92 1027ft 123kts
12-Feb-16 21:25 34.214118 -119.165046 85 1105ft 127kts
12-Feb-16 21:26 34.200010 -119.157496 268 833ft 191kts
12-Feb-16 21:27 34.200792 -119.205211 269 46ft 78kts
12-Feb-16 21:28 34.199771 -119.215241 305 46ft 0kts
12-Feb-16 21:29 34.199777 -119.215252 305 46ft 0kts
12-Feb-16 21:30 34.199876 -119.212506 89 46ft 21kts
12-Feb-16 21:31 34.199818 -119.205652 89 46ft 15kts
12-Feb-16 21:32 34.199777 -119.199669 92 46ft 21kts
12-Feb-16 21:33 34.199916 -119.197598 18 46ft 0kts
12-Feb-16 21:34 34.200750 -119.197990 268 46ft 15kts
12-Feb-16 21:35 34.205137 -119.230334 306 1291ft 126kts
12-Feb-16 21:36 34.231813 -119.263829 317 2841ft 146kts
12-Feb-16 21:37 34.260822 -119.299905 315 3726ft 156kts
12-Feb-16 21:38 34.288530 -119.340733 308 4519ft 160kts
12-Feb-16 21:39 34.316542 -119.387795 304 4562ft 180kts
12-Feb-16 21:40 34.344930 -119.438689 304 4560ft 183kts
12-Feb-16 21:41 34.358653 -119.496625 289 4559ft 183kts
12-Feb-16 21:42 34.374582 -119.555471 280 4561ft 183kts
12-Feb-16 21:43 34.385145 -119.616031 282 4560ft 183kts
12-Feb-16 21:44 34.402942 -119.674298 288 4092ft 184kts
12-Feb-16 21:45 34.411815 -119.724689 292 2224ft 142kts
12-Feb-16 21:46 34.424580 -119.766689 285 1258ft 131kts
12-Feb-16 21:47 34.428187 -119.806508 268 494ft 104kts
12-Feb-16 21:48 34.427613 -119.838207 266 16ft 40kts
12-Feb-16 21:49 34.426560 -119.838414 164 16ft 0kts
12-Feb-16 21:50 34.421985 -119.836810 185 16ft 13kts
12-Feb-16 21:51 34.421420 -119.836679 52 16ft 0kts
12-Feb-16 21:52 34.421420 -119.836679 52 16ft 0kts
12-Feb-16 21:53 34.421420 -119.836679 52 16ft 0kts
12-Feb-16 21:54 34.421420 -119.836679 52 16ft 0kts
12-Feb-16 21:55 34.421420 -119.836679 52 16ft 0kts
12-Feb-16 21:56 34.421420 -119.836679 52 16ft 0kts
12-Feb-16 21:57 34.421420 -119.836679 52 16ft 0kts

Navigation Log

Ident Type
Flight plan parsing failed, navigation log unavailable